North Tonawanda, NY (14120)

9:53 AM EDT on September 22, 2014 (GMT -0400)
Park Village | Change Station
CLOSE
Current Station
Personal Weather Station
Location: North Tonawanda, NY
Elevation: 580 ft
Nearby Weather Stations

Elev 580 ft 43.02 °N, 78.85 °W | Updated 7 minutes ago

Overcast
Overcast
52.0 °F
Feels Like 52.0 °F
N
8.1
Wind Variable Wind from West
Gusts 14.8 mph

Today
High -- | Low -- °F
--% Chance of Precip.
Yesterday
High -- | Low -- °F
Precip. -- in
7:02 AM 7:12 PM
Waning Crescent, 3% visible
Pressure 30.02 in
Visibility 10.0 miles
Clouds Few 2500 ft
Overcast 3200 ft
Dew Point 51 °F
Humidity 100%
Rainfall 0.01 in
Snow Depth Not available.
UV 0 out of 12
Pollen 3.30 out of 12
PM2.5 Good
Flu Activity Not available.
SPECI KIAG 221303Z 32014G19KT 10SM FEW025 OVC032 10/04 A3002 RMK AO2 DZE03 P0000 T01000039

More Conditions Fewer Conditions

Pressure 30.02 in
Visibility 10.0 miles
Clouds Few 2500 ft
Overcast 3200 ft
Dew Point 51 °F
Humidity 100%
Rainfall 0.01 in
Snow Depth Not available.
UV 0 out of 12
Pollen 3.30 out of 12
PM2.5 Good
Flu Activity Not available.
SPECI KIAG 221303Z 32014G19KT 10SM FEW025 OVC032 10/04 A3002 RMK AO2 DZE03 P0000 T01000039

More Conditions Fewer Conditions

10-Day Weather Forecast

Almanac

Astronomy

Sep. 22, 2014 Rise Set
Actual Time 7:02 AM EDT 7:12 PM EDT
Civil Twilight 6:34 AM EDT 7:40 PM EDT
Nautical Twilight 6:00 AM EDT 8:14 PM EDT
Astronomical Twilight 5:26 AM EDT 8:48 PM EDT
Moon 5:27 AM EDT 6:20 PM EDT
Length of Visible Light 13h 06m
Length of Day
12h 10m
Tomorrow will be 2m 55s shorter.
Waning Crescent, 3% of the Moon is Illuminated
Today
Waning Crescent
Sep 24
New
Oct 1
First Quarter
Oct 8
Full
Oct 15
Last Quarter

Today's Extremes

State Highs State Lows

Community

WunderPhotos

Upload Photos

1,755,436 photos uploaded!

WunderBlogs® & News

By Dr. Jeff Masters
Director of Meteorology, Weather Underground
By Kari Strenfel
Meteorologist, Weather Underground
By Christopher C. Burt
Weather Historian, Weather Underground
September 22, 2014
September 22, 2014
September 22, 2014

Nearby

Air Quality

  Air Quality AQ Index Pollutant
Yesterday Good
OZONE
Yesterday Good
PM2.5
Current Good
PM2.5
Monday Good
OZONE
Monday Good
PM2.5

Snow Depth

Station Depth Elevation
No new snow has been reported.

Earthquake Activity

City Distance Mag. Time & Date
No recent earthquake activity has been reported nearby.
Minimum magnitude displayed is 2.5.

Coastal Water Temperatures

Place Temperature
Buffalo, NY 66.0 °F

Nearby Weather Stations